Time;durP1;ratioP1;P1;durP2;ratioP2;P2;SDS_P1;SDS_P2;PMS_P1;PMS_P2;Temp;Humidity;BMP_temperature;BMP_pressure;BME280_temperature;BME280_humidity;BME280_pressure;Samples;Min_cycle;Max_cycle;Signal;HPM_P1;HPM_P2
2021/06/26 00:00:13;;;;;;;9.73;6.25;;;;;;;14.99;88.26;101614.88;4787845;30;20035;-79
2021/06/26 00:02:39;;;;;;;6.70;5.68;;;;;;;14.98;88.17;101610.53;4787682;29;20035;-79
2021/06/26 00:05:07;;;;;;;7.70;5.95;;;;;;;14.96;88.02;101618.00;4802006;29;20059;-79
2021/06/26 00:07:33;;;;;;;7.35;6.40;;;;;;;14.94;87.92;101610.09;4788072;30;20047;-79
2021/06/26 00:09:58;;;;;;;8.65;6.55;;;;;;;14.97;88.24;101598.84;4787042;30;20050;-79
2021/06/26 00:12:23;;;;;;;7.38;5.60;;;;;;;15.04;88.14;101613.22;4786942;29;20039;-79
2021/06/26 00:14:50;;;;;;;6.35;5.47;;;;;;;15.02;88.00;101601.75;4788848;29;20352;-79
2021/06/26 00:17:15;;;;;;;6.32;4.13;;;;;;;14.99;88.49;101607.59;4786907;30;20047;-79
2021/06/26 00:19:41;;;;;;;6.05;4.45;;;;;;;15.02;88.10;101611.75;4787176;30;20036;-80
2021/06/26 00:22:06;;;;;;;6.05;5.45;;;;;;;14.99;88.50;101607.59;4786317;29;20027;-79
2021/06/26 00:24:32;;;;;;;6.80;5.45;;;;;;;14.93;88.44;101611.16;4772004;30;20489;-79
2021/06/26 00:26:57;;;;;;;8.45;7.05;;;;;;;14.93;88.95;101619.28;4787105;29;20351;-80
2021/06/26 00:29:23;;;;;;;11.13;6.70;;;;;;;14.94;88.91;101615.53;4788645;30;20118;-79
2021/06/26 00:31:48;;;;;;;10.27;7.57;;;;;;;14.91;88.49;101610.50;4771201;30;20036;-79
2021/06/26 00:34:13;;;;;;;13.07;10.23;;;;;;;14.88;88.94;101610.09;4772904;30;20035;-80
2021/06/26 00:36:39;;;;;;;10.30;8.85;;;;;;;14.89;89.18;101618.00;4772140;30;20625;-79
2021/06/26 00:39:04;;;;;;;12.35;9.75;;;;;;;14.83;89.42;101608.00;4787234;30;20172;-79
2021/06/26 00:41:30;;;;;;;9.77;8.15;;;;;;;14.82;89.20;101610.94;4789999;29;20042;-79
2021/06/26 00:43:55;;;;;;;17.38;13.60;;;;;;;14.81;88.94;101620.94;4791850;30;20027;-79
2021/06/26 00:46:21;;;;;;;15.48;11.20;;;;;;;14.86;88.68;101612.16;4790152;30;20046;-79
2021/06/26 00:48:46;;;;;;;10.40;8.35;;;;;;;14.77;88.96;101612.38;4795978;30;20110;-80
2021/06/26 00:51:11;;;;;;;11.30;9.07;;;;;;;14.74;88.92;101606.56;4800162;30;20626;-79
2021/06/26 00:53:37;;;;;;;15.90;12.68;;;;;;;14.80;88.80;101619.25;4775594;30;20051;-79
2021/06/26 00:56:04;;;;;;;16.33;12.38;;;;;;;14.74;89.30;101614.69;4787487;29;20035;-79
2021/06/26 00:58:29;;;;;;;14.48;8.95;;;;;;;14.78;88.87;101626.75;4772576;30;20045;-79
2021/06/26 01:00:55;;;;;;;12.02;8.70;;;;;;;14.78;88.88;101626.75;4783826;30;20053;-79
2021/06/26 01:03:21;;;;;;;17.50;10.90;;;;;;;14.79;88.88;101631.13;4789921;30;20382;-79
2021/06/26 01:05:49;;;;;;;22.73;11.55;;;;;;;14.79;88.97;101628.41;4788651;30;20110;-79
2021/06/26 01:08:15;;;;;;;13.88;8.75;;;;;;;14.72;88.92;101624.88;4790466;30;20031;-79
2021/06/26 01:10:41;;;;;;;17.23;10.45;;;;;;;14.66;88.91;101606.75;4789998;30;20058;-79
2021/06/26 01:13:07;;;;;;;15.27;9.38;;;;;;;14.69;89.01;101628.81;4802781;29;20374;-79
2021/06/26 01:15:33;;;;;;;13.95;9.25;;;;;;;14.71;89.11;101626.75;4791093;30;20558;-79
2021/06/26 01:17:58;;;;;;;16.52;10.40;;;;;;;14.69;88.59;101630.69;4789623;30;20074;-79
2021/06/26 01:20:24;;;;;;;18.70;10.98;;;;;;;14.69;88.68;101625.28;4790835;29;20043;-79
2021/06/26 01:22:55;;;;;;;22.42;13.23;;;;;;;14.69;88.28;101633.41;4788926;29;20415;-79
2021/06/26 01:25:22;;;;;;;23.13;16.20;;;;;;;14.67;88.39;101627.34;4774149;30;20039;-79
2021/06/26 01:27:48;;;;;;;20.27;14.15;;;;;;;14.64;87.97;101628.63;4790386;29;20118;-79
2021/06/26 01:30:16;;;;;;;21.13;14.43;;;;;;;14.60;87.61;101624.63;4788239;30;20127;-79
2021/06/26 01:32:41;;;;;;;18.42;11.70;;;;;;;14.60;87.54;101624.63;4788949;30;20055;-79
2021/06/26 01:35:08;;;;;;;22.05;14.57;;;;;;;14.64;87.46;101630.50;4789553;29;20078;-79
2021/06/26 01:37:37;;;;;;;19.05;13.57;;;;;;;14.52;87.19;101617.56;4788847;29;20477;-79
2021/06/26 01:40:03;;;;;;;16.63;9.57;;;;;;;14.62;86.70;101628.00;4790398;29;20109;-80
2021/06/26 01:42:29;;;;;;;22.75;8.40;;;;;;;14.60;86.21;101638.19;4787309;30;20035;-79
2021/06/26 01:44:54;;;;;;;13.73;9.07;;;;;;;14.59;85.95;101632.97;4790785;29;20039;-79
2021/06/26 01:47:20;;;;;;;13.77;8.00;;;;;;;14.62;85.74;101632.56;4788426;30;20070;-79
2021/06/26 01:49:46;;;;;;;11.88;8.02;;;;;;;14.65;85.12;101629.47;4788441;30;20035;-79
2021/06/26 01:52:12;;;;;;;13.60;10.23;;;;;;;14.60;85.40;101626.50;4788428;29;20035;-79
2021/06/26 01:54:38;;;;;;;12.18;8.15;;;;;;;14.62;85.31;101628.00;4787743;29;20545;-79
2021/06/26 01:57:07;;;;;;;11.52;6.97;;;;;;;14.57;85.06;101625.91;4790288;29;20486;-79
2021/06/26 01:59:33;;;;;;;11.45;6.90;;;;;;;14.51;85.03;101606.94;4788918;29;20065;-79
2021/06/26 02:01:58;;;;;;;15.40;6.85;;;;;;;14.57;85.25;101612.38;4788460;29;20054;-79
2021/06/26 02:04:23;;;;;;;14.75;6.22;;;;;;;14.48;85.40;101600.00;4788404;29;20052;-79
2021/06/26 02:06:49;;;;;;;10.93;6.20;;;;;;;14.60;85.74;101613.81;4787736;29;20065;-79
2021/06/26 02:09:14;;;;;;;13.77;6.43;;;;;;;14.63;85.45;101604.44;4789103;29;20382;-78
2021/06/26 02:11:40;;;;;;;13.05;5.72;;;;;;;14.67;85.15;101613.81;4802422;29;20038;-78
2021/06/26 02:14:05;;;;;;;8.90;5.45;;;;;;;14.65;85.52;101613.19;4788358;30;20035;-79
2021/06/26 02:16:30;;;;;;;10.77;6.03;;;;;;;14.50;85.47;101592.56;4788530;29;20515;-79
2021/06/26 02:18:56;;;;;;;18.73;6.05;;;;;;;14.70;85.29;101621.53;4786745;29;20167;-79
2021/06/26 02:21:22;;;;;;;15.40;5.68;;;;;;;14.69;85.67;101615.28;4789408;30;20039;-78
2021/06/26 02:23:47;;;;;;;8.80;5.03;;;;;;;14.69;85.67;101614.44;4787920;30;20110;-79
2021/06/26 02:26:12;;;;;;;13.10;5.72;;;;;;;14.68;85.17;101616.34;4786297;30;20046;-79
2021/06/26 02:28:38;;;;;;;15.00;6.53;;;;;;;14.67;85.52;101614.69;4788472;30;20031;-79
2021/06/26 02:31:03;;;;;;;12.88;6.00;;;;;;;14.69;85.71;101619.88;4787672;29;20097;-79
2021/06/26 02:33:29;;;;;;;11.90;5.68;;;;;;;14.68;85.54;101627.16;4788884;29;20490;-79
2021/06/26 02:35:54;;;;;;;13.20;6.30;;;;;;;14.67;85.61;101622.78;4788244;30;20031;-78
2021/06/26 02:38:20;;;;;;;10.88;5.50;;;;;;;14.68;85.55;101620.91;4768540;30;20447;-79
2021/06/26 02:40:45;;;;;;;14.73;6.15;;;;;;;14.63;85.65;101612.56;4770888;30;20036;-79
2021/06/26 02:43:10;;;;;;;11.55;5.80;;;;;;;14.66;86.04;101623.00;4775678;29;20046;-79
2021/06/26 02:45:36;;;;;;;10.35;5.93;;;;;;;14.65;85.97;101627.56;4787663;30;20040;-78
2021/06/26 02:48:01;;;;;;;13.65;6.05;;;;;;;14.65;85.85;101624.03;4787319;30;20031;-79
2021/06/26 02:50:27;;;;;;;14.02;6.30;;;;;;;14.66;85.75;101623.00;4789395;30;20370;-79
2021/06/26 02:52:52;;;;;;;13.15;5.97;;;;;;;14.66;86.10;101623.81;4787954;29;20378;-79
2021/06/26 02:55:18;;;;;;;12.90;5.60;;;;;;;14.67;85.83;101624.66;4788656;29;20040;-79
2021/06/26 02:57:43;;;;;;;11.77;5.20;;;;;;;14.70;86.08;101627.81;4787449;30;20031;-79
2021/06/26 03:00:10;;;;;;;13.70;5.95;;;;;;;14.66;85.67;101612.16;4788166;29;20130;-79
2021/06/26 03:02:36;;;;;;;14.70;5.65;;;;;;;14.78;86.08;101627.59;4787901;29;20031;-79
2021/06/26 03:05:02;;;;;;;12.80;4.88;;;;;;;14.81;85.93;101623.66;4801358;29;20116;-79
2021/06/26 03:07:27;;;;;;;15.45;5.70;;;;;;;14.86;85.48;101618.41;4788569;29;20379;-78
2021/06/26 03:09:53;;;;;;;14.68;5.28;;;;;;;14.89;85.41;101615.28;4785872;29;20363;-80
2021/06/26 03:12:18;;;;;;;10.10;5.80;;;;;;;14.89;85.36;101609.06;4790111;29;20034;-79
2021/06/26 03:14:43;;;;;;;12.75;5.93;;;;;;;14.88;85.20;101604.69;4788262;30;20100;-80
2021/06/26 03:17:10;;;;;;;17.80;6.00;;;;;;;14.96;85.18;101623.44;4772567;30;20038;-79
2021/06/26 03:19:36;;;;;;;12.85;6.22;;;;;;;14.96;84.58;101621.53;4788001;29;20518;-79
2021/06/26 03:22:01;;;;;;;15.38;7.18;;;;;;;14.93;84.58;101621.13;4788586;29;20027;-79
2021/06/26 03:24:30;;;;;;;14.82;7.07;;;;;;;14.94;84.51;101614.69;4787944;30;20032;-79
2021/06/26 03:26:56;;;;;;;19.33;7.03;;;;;;;14.89;84.16;101601.75;4786585;29;20031;-79
2021/06/26 03:29:22;;;;;;;19.02;7.88;;;;;;;15.00;83.84;101614.69;4784676;30;20062;-79
2021/06/26 03:31:47;;;;;;;18.13;7.07;;;;;;;15.00;83.27;101611.16;4787413;30;20063;-79
2021/06/26 03:34:13;;;;;;;13.40;7.45;;;;;;;15.07;83.06;101622.00;4772234;30;20443;-79
2021/06/26 03:36:38;;;;;;;15.32;7.80;;;;;;;15.11;83.06;101615.09;4777212;29;20038;-79
2021/06/26 03:39:04;;;;;;;12.38;7.75;;;;;;;15.06;82.90;101613.00;4786526;30;20074;-79
2021/06/26 03:41:30;;;;;;;12.10;7.32;;;;;;;15.14;82.73;101620.94;4783737;29;20189;-79
2021/06/26 03:43:58;;;;;;;16.90;7.38;;;;;;;15.14;82.38;101618.22;4784579;29;20035;-79
2021/06/26 03:46:24;;;;;;;15.88;8.00;;;;;;;15.12;82.41;101614.06;4789039;30;20348;-79
2021/06/26 03:48:49;;;;;;;13.55;8.38;;;;;;;15.13;82.21;101616.56;4785052;30;20067;-79
2021/06/26 03:51:15;;;;;;;17.88;8.70;;;;;;;15.16;81.93;101613.41;4787004;29;20123;-80
2021/06/26 03:53:40;;;;;;;20.23;8.73;;;;;;;15.09;82.15;101601.75;4787169;30;20076;-78
2021/06/26 03:56:06;;;;;;;14.25;9.25;;;;;;;15.21;82.19;101620.94;4785674;29;20077;-78
2021/06/26 03:58:31;;;;;;;15.20;8.77;;;;;;;15.25;81.66;101616.75;4798625;29;20104;-79
2021/06/26 04:00:56;;;;;;;15.07;8.85;;;;;;;15.24;81.56;101621.34;4786799;29;20027;-79
2021/06/26 04:03:23;;;;;;;12.70;8.48;;;;;;;15.23;81.50;101624.25;4770787;30;20071;-79
2021/06/26 04:05:48;;;;;;;16.73;8.68;;;;;;;15.24;81.96;101629.47;4783224;30;20118;-79
2021/06/26 04:08:14;;;;;;;13.07;8.63;;;;;;;15.17;81.41;101603.44;4780412;30;20133;-79
2021/06/26 04:10:40;;;;;;;17.67;8.48;;;;;;;15.30;81.36;101625.09;4781899;29;20027;-79
2021/06/26 04:13:06;;;;;;;15.43;8.00;;;;;;;15.28;81.08;101625.28;4783315;30;20059;-79
2021/06/26 04:15:32;;;;;;;14.80;8.45;;;;;;;15.27;81.11;101618.22;4786431;29;20066;-78
2021/06/26 04:17:57;;;;;;;18.42;9.25;;;;;;;15.31;81.33;101623.22;4782053;30;20024;-79
2021/06/26 04:20:23;;;;;;;17.35;8.50;;;;;;;15.30;81.70;101608.84;4787917;30;20304;-79
2021/06/26 04:22:48;;;;;;;23.50;9.90;;;;;;;15.28;82.03;101621.75;4773238;29;20039;-79
2021/06/26 04:25:15;;;;;;;19.75;10.55;;;;;;;15.18;82.59;101607.78;4781566;30;20177;-79
2021/06/26 04:27:41;;;;;;;16.88;9.65;;;;;;;15.19;83.05;101617.59;4776274;30;20049;-78
2021/06/26 04:30:07;;;;;;;23.15;10.20;;;;;;;15.23;83.53;101621.53;4780534;30;20096;-79
2021/06/26 04:32:35;;;;;;;23.95;11.13;;;;;;;15.21;83.61;101623.66;4785593;30;20031;-79
2021/06/26 04:35:01;;;;;;;18.88;10.07;;;;;;;15.21;83.89;101629.91;4804711;29;20437;-79
2021/06/26 04:37:27;;;;;;;21.33;10.57;;;;;;;15.20;84.00;101619.28;4794026;29;20118;-79
2021/06/26 04:39:52;;;;;;;21.45;11.05;;;;;;;15.18;83.98;101627.59;4787601;29;20118;-79
2021/06/26 04:42:17;;;;;;;17.55;11.07;;;;;;;15.20;84.39;101630.94;4788180;29;20043;-79
2021/06/26 04:44:43;;;;;;;21.05;11.63;;;;;;;15.03;84.79;101616.13;4789433;29;20027;-79
2021/06/26 04:47:08;;;;;;;18.75;10.82;;;;;;;15.09;84.48;101641.56;4771405;29;20043;-79
2021/06/26 04:49:35;;;;;;;18.35;10.15;;;;;;;15.09;84.58;101630.72;4786187;29;20118;-78
2021/06/26 04:52:00;;;;;;;22.25;10.63;;;;;;;15.12;84.72;101636.56;4789369;29;20043;-78
2021/06/26 04:54:26;;;;;;;19.30;11.50;;;;;;;15.15;84.90;101643.47;4800219;29;20130;-79
2021/06/26 04:56:51;;;;;;;24.83;11.93;;;;;;;15.17;84.99;101646.81;4783420;29;20093;-79
2021/06/26 04:59:16;;;;;;;24.63;11.57;;;;;;;15.21;85.26;101638.03;4777356;29;20382;-79
2021/06/26 05:01:42;;;;;;;25.77;13.63;;;;;;;15.22;85.67;101636.97;4774176;29;20160;-79
2021/06/26 05:04:07;;;;;;;27.52;12.95;;;;;;;15.12;85.69;101625.72;4783192;29;20147;-79
2021/06/26 05:06:33;;;;;;;25.13;12.68;;;;;;;15.16;85.82;101636.97;4784631;29;20051;-79
2021/06/26 05:08:58;;;;;;;22.55;13.07;;;;;;;15.16;86.41;101635.09;4773092;30;20118;-80
2021/06/26 05:11:24;;;;;;;25.75;12.25;;;;;;;15.10;86.00;101617.00;4786904;29;20127;-78
2021/06/26 05:13:49;;;;;;;26.13;13.10;;;;;;;15.16;86.23;101624.25;4783823;29;20082;-79
2021/06/26 05:16:15;;;;;;;28.35;12.45;;;;;;;15.22;86.22;101628.84;4782228;29;20047;-79
2021/06/26 05:18:40;;;;;;;26.10;12.57;;;;;;;15.21;86.30;101629.91;4784125;29;20470;-78
2021/06/26 05:21:06;;;;;;;22.45;12.10;;;;;;;15.25;86.62;101638.44;4786419;29;20035;-79
2021/06/26 05:23:32;;;;;;;19.55;11.27;;;;;;;14.91;86.09;101588.00;4768365;30;20042;-79
2021/06/26 05:25:58;;;;;;;22.08;12.10;;;;;;;15.28;86.24;101640.75;4785826;29;20023;-79
2021/06/26 05:28:23;;;;;;;20.75;11.68;;;;;;;15.30;86.20;101635.09;4785981;29;20039;-79
2021/06/26 05:30:49;;;;;;;23.63;13.90;;;;;;;15.39;86.60;101642.78;4786405;29;20690;-79
2021/06/26 05:33:14;;;;;;;22.02;12.30;;;;;;;15.38;86.46;101640.31;4788969;29;20451;-79
2021/06/26 05:35:40;;;;;;;18.60;11.38;;;;;;;15.32;86.09;101639.25;4788199;29;20439;-80
2021/06/26 05:38:05;;;;;;;23.17;12.38;;;;;;;15.30;85.93;101638.66;4784138;29;20039;-79
2021/06/26 05:40:31;;;;;;;18.13;10.75;;;;;;;15.48;85.70;101654.28;4785521;29;20370;-79
2021/06/26 05:42:56;;;;;;;32.28;11.82;;;;;;;15.59;85.32;101644.66;4781587;29;20105;-79
2021/06/26 05:45:22;;;;;;;20.33;10.80;;;;;;;15.75;85.12;101649.66;4770603;30;20208;-79
2021/06/26 05:47:47;;;;;;;19.15;10.70;;;;;;;15.78;84.55;101643.81;4783775;29;20108;-79
2021/06/26 05:50:13;;;;;;;18.77;10.90;;;;;;;15.72;84.32;101633.81;4785459;29;20077;-79
2021/06/26 05:52:45;;;;;;;24.23;11.20;;;;;;;15.89;84.48;101651.31;4792989;29;20035;-79
2021/06/26 05:55:11;;;;;;;21.85;10.52;;;;;;;15.91;84.03;101643.75;4808803;29;20389;-79
2021/06/26 05:57:37;;;;;;;21.92;10.13;;;;;;;15.96;84.25;101662.97;4811114;29;20031;-79
2021/06/26 06:00:04;;;;;;;26.00;10.00;;;;;;;15.86;84.28;101649.03;4782442;29;20100;-79
2021/06/26 06:02:29;;;;;;;23.85;9.93;;;;;;;15.93;84.21;101654.44;4780679;29;20050;-80
2021/06/26 06:04:55;;;;;;;23.40;10.00;;;;;;;16.08;83.71;101654.97;4798422;29;20052;-79
2021/06/26 06:07:20;;;;;;;23.98;9.27;;;;;;;16.28;83.42;101654.88;4787172;30;20107;-79
2021/06/26 06:09:45;;;;;;;20.27;9.73;;;;;;;16.33;83.27;101649.66;4784017;30;20118;-79
2021/06/26 06:12:11;;;;;;;26.70;10.50;;;;;;;16.19;83.37;101635.31;4786538;30;20335;-78
2021/06/26 06:14:37;;;;;;;23.95;10.20;;;;;;;16.21;83.05;101654.09;4772085;29;20126;-78
2021/06/26 06:17:02;;;;;;;18.83;10.27;;;;;;;16.14;83.59;101656.00;4783655;29;20035;-79
2021/06/26 06:19:28;;;;;;;16.38;9.20;;;;;;;16.12;83.39;101648.06;4773674;29;20067;-78
2021/06/26 06:21:53;;;;;;;18.05;8.40;;;;;;;16.34;82.60;101664.06;4788531;29;20064;-79
2021/06/26 06:24:19;;;;;;;17.27;7.90;;;;;;;16.58;81.87;101666.00;4780134;29;20038;-78
2021/06/26 06:26:44;;;;;;;18.88;7.85;;;;;;;16.87;80.84;101659.19;4780029;29;20063;-78
2021/06/26 06:29:09;;;;;;;18.30;8.23;;;;;;;17.12;80.24;101671.97;4782764;30;20039;-79
2021/06/26 06:31:35;;;;;;;21.17;8.55;;;;;;;16.98;80.39;101676.66;4803070;29;20039;-79
2021/06/26 06:34:00;;;;;;;23.42;9.65;;;;;;;16.67;81.30;101683.72;4788101;29;20541;-79
2021/06/26 06:36:26;;;;;;;18.88;9.15;;;;;;;16.51;81.93;101686.13;4786355;29;20038;-79
2021/06/26 06:38:51;;;;;;;21.02;8.98;;;;;;;16.36;82.25;101683.72;4791578;29;20047;-78
2021/06/26 06:41:17;;;;;;;21.30;9.45;;;;;;;16.35;82.11;101695.59;4773532;30;20139;-79
2021/06/26 06:43:43;;;;;;;18.08;8.27;;;;;;;16.35;82.64;101699.16;4788817;29;20042;-80
2021/06/26 06:46:08;;;;;;;19.75;7.72;;;;;;;16.43;81.96;101679.91;4773055;30;20039;-78
2021/06/26 06:48:35;;;;;;;19.35;8.52;;;;;;;16.48;81.85;101694.72;4787292;29;20096;-78
2021/06/26 06:51:01;;;;;;;22.55;8.05;;;;;;;16.38;82.44;101698.72;4788709;29;20038;-78
2021/06/26 06:53:26;;;;;;;12.52;7.50;;;;;;;16.14;82.97;101675.00;4774329;30;20119;-77
2021/06/26 06:55:51;;;;;;;17.17;8.82;;;;;;;16.18;82.74;101690.66;4773057;29;20045;-78
2021/06/26 06:58:18;;;;;;;18.13;8.88;;;;;;;16.26;83.19;101705.03;4792641;29;20031;-78
2021/06/26 07:00:44;;;;;;;15.93;9.30;;;;;;;16.29;83.15;101708.19;4777552;30;20043;-78
2021/06/26 07:03:09;;;;;;;14.73;8.63;;;;;;;16.33;83.10;101714.84;4776119;29;20039;-77
2021/06/26 07:05:35;;;;;;;13.93;8.40;;;;;;;16.43;83.19;101720.66;4794744;29;20493;-78
2021/06/26 07:08:00;;;;;;;15.65;7.65;;;;;;;16.49;82.87;101720.81;4794675;29;20437;-78
2021/06/26 07:10:26;;;;;;;16.92;8.30;;;;;;;16.51;82.43;101716.84;4790286;29;20047;-78
2021/06/26 07:12:51;;;;;;;16.77;8.25;;;;;;;16.52;82.67;101714.94;4787678;30;20502;-78
2021/06/26 07:15:16;;;;;;;16.25;8.07;;;;;;;16.64;82.94;101718.66;4788448;29;20462;-78
2021/06/26 07:17:42;;;;;;;14.25;7.07;;;;;;;16.67;82.45;101712.78;4788144;29;20031;-79
2021/06/26 07:20:08;;;;;;;13.98;7.65;;;;;;;16.72;82.69;101710.28;4791957;29;20035;-78
2021/06/26 07:22:33;;;;;;;11.55;7.32;;;;;;;16.64;82.17;101696.94;4794115;29;20474;-77
2021/06/26 07:24:59;;;;;;;17.70;7.18;;;;;;;16.78;81.92;101714.00;4779057;29;20043;-79
2021/06/26 07:27:24;;;;;;;15.10;7.93;;;;;;;16.89;81.73;101711.44;4777368;29;20479;-79
2021/06/26 07:29:49;;;;;;;12.50;7.80;;;;;;;16.91;81.82;101703.88;4793379;29;20035;-79
2021/06/26 07:32:15;;;;;;;12.02;6.20;;;;;;;16.90;81.66;101721.25;4792788;29;20039;-79
2021/06/26 07:34:40;;;;;;;10.80;5.80;;;;;;;16.96;81.35;101721.44;4781995;29;20075;-78
2021/06/26 07:37:06;;;;;;;11.18;6.20;;;;;;;16.93;81.48;101720.00;4786721;29;20621;-78
2021/06/26 07:39:31;;;;;;;11.95;7.00;;;;;;;16.88;81.77;101715.19;4791093;29;20027;-78
2021/06/26 07:41:57;;;;;;;12.35;7.63;;;;;;;16.75;82.32;101720.72;4794208;29;20556;-78
2021/06/26 07:44:24;;;;;;;16.50;7.72;;;;;;;16.53;82.96;101706.59;4794745;29;20039;-79
2021/06/26 07:46:49;;;;;;;11.93;7.30;;;;;;;16.53;83.33;101727.50;4785251;29;20073;-78
2021/06/26 07:49:15;;;;;;;13.80;7.78;;;;;;;16.40;83.26;101726.50;4804493;29;20035;-78
2021/06/26 07:51:40;;;;;;;12.60;8.15;;;;;;;16.39;83.61;101732.13;4794333;29;20082;-78
2021/06/26 07:54:05;;;;;;;14.00;7.53;;;;;;;16.36;83.72;101725.28;4792498;29;20073;-79
2021/06/26 07:56:31;;;;;;;15.00;8.32;;;;;;;16.31;83.54;101714.22;4804638;29;20109;-79
2021/06/26 07:58:59;;;;;;;11.60;7.32;;;;;;;16.38;83.12;101725.06;4774589;29;20355;-79
2021/06/26 08:01:24;;;;;;;14.32;7.40;;;;;;;16.41;83.15;101736.31;4793153;29;20035;-79
2021/06/26 08:03:50;;;;;;;14.23;7.55;;;;;;;16.43;82.92;101725.25;4786972;29;20064;-79
2021/06/26 08:06:15;;;;;;;15.40;7.78;;;;;;;16.57;82.53;101731.44;4773036;30;20035;-78
2021/06/26 08:08:40;;;;;;;10.32;7.40;;;;;;;16.65;82.30;101725.75;4804886;29;20046;-79
2021/06/26 08:11:06;;;;;;;9.80;6.60;;;;;;;16.74;82.17;101729.06;4791148;30;20108;-78
2021/06/26 08:13:31;;;;;;;10.32;7.13;;;;;;;16.86;81.66;101722.75;4795875;29;20125;-79
2021/06/26 08:15:57;;;;;;;12.48;6.93;;;;;;;16.83;81.63;101738.69;4813976;29;20036;-79
2021/06/26 08:18:23;;;;;;;12.77;7.80;;;;;;;16.77;81.75;101732.22;4800357;29;20064;-78
2021/06/26 08:20:49;;;;;;;12.45;7.28;;;;;;;16.69;81.82;101721.56;4790770;30;20035;-79
2021/06/26 08:23:14;;;;;;;13.27;7.97;;;;;;;16.60;81.95;101717.44;4774981;30;20100;-79
2021/06/26 08:25:40;;;;;;;13.30;7.68;;;;;;;16.58;81.92;101719.53;4789455;29;20031;-79
2021/06/26 08:28:05;;;;;;;13.50;7.97;;;;;;;16.55;82.06;101712.63;4793012;30;20100;-79
2021/06/26 08:30:31;;;;;;;16.08;7.80;;;;;;;16.47;81.49;101701.19;4794607;30;20039;-79
2021/06/26 08:32:57;;;;;;;12.85;8.13;;;;;;;16.68;81.51;101714.44;4810301;29;20127;-79
2021/06/26 08:35:23;;;;;;;10.48;6.57;;;;;;;16.85;80.99;101718.38;4796869;30;20496;-79
2021/06/26 08:37:50;;;;;;;13.15;6.78;;;;;;;16.93;80.48;101711.00;4778567;30;20079;-79
2021/06/26 08:40:16;;;;;;;10.43;7.30;;;;;;;17.02;80.63;101726.00;4806259;29;20027;-79
2021/06/26 08:42:43;;;;;;;13.30;7.82;;;;;;;17.10;80.43;101723.84;4791486;29;20099;-79
2021/06/26 08:45:18;;;;;;;13.43;7.78;;;;;;;17.19;79.82;101718.16;4790203;29;20043;-79
2021/06/26 08:47:51;;;;;;;15.25;8.27;;;;;;;17.20;79.59;101709.75;4792083;29;20035;-78
2021/06/26 08:50:19;;;;;;;16.95;8.82;;;;;;;17.34;78.73;101732.25;4779280;30;20099;-78
2021/06/26 08:52:45;;;;;;;15.30;8.85;;;;;;;17.43;78.22;101728.22;4790866;29;20031;-79
2021/06/26 08:55:11;;;;;;;14.93;8.73;;;;;;;17.64;77.81;101735.13;4790488;29;20182;-79
2021/06/26 08:57:39;;;;;;;16.25;8.73;;;;;;;17.61;77.16;101711.94;4789391;29;20039;-79
2021/06/26 09:00:15;;;;;;;17.17;9.07;;;;;;;17.75;76.46;101709.91;4789031;29;20034;-78
2021/06/26 09:02:40;;;;;;;15.00;8.20;;;;;;;17.97;75.93;101728.56;4804661;29;20027;-78
2021/06/26 09:05:07;;;;;;;15.32;8.05;;;;;;;18.07;75.82;101734.31;4788679;29;20056;-78
2021/06/26 09:07:35;;;;;;;18.52;8.88;;;;;;;18.13;75.80;101747.03;4789661;29;20404;-79
2021/06/26 09:10:16;;;;;;;15.82;9.23;;;;;;;17.84;75.71;101724.09;4788908;30;20092;-78
2021/06/26 09:12:42;;;;;;;15.30;9.57;;;;;;;17.99;75.50;101737.34;4788577;30;20118;-78
2021/06/26 09:15:09;;;;;;;15.55;8.85;;;;;;;18.17;75.16;101734.63;4789386;30;20031;-78
2021/06/26 09:17:36;;;;;;;16.90;9.05;;;;;;;18.10;74.85;101730.31;4787453;30;20028;-78
2021/06/26 09:20:06;;;;;;;23.05;10.52;;;;;;;18.10;75.18;101731.13;4802953;29;20050;-78
2021/06/26 09:22:36;;;;;;;15.10;9.48;;;;;;;17.97;75.52;101728.56;4788877;29;20478;-78
2021/06/26 09:25:02;;;;;;;18.13;10.20;;;;;;;17.79;76.30;101732.94;4802571;29;20439;-78
2021/06/26 09:27:33;;;;;;;18.02;10.00;;;;;;;17.67;76.41;101726.53;4790414;29;20034;-78
2021/06/26 09:29:58;;;;;;;23.77;10.93;;;;;;;17.56;76.69;101725.38;4788409;29;20063;-78
2021/06/26 09:32:29;;;;;;;23.48;11.35;;;;;;;17.41;77.31;101729.47;4789077;29;20422;-78
2021/06/26 09:34:56;;;;;;;22.67;11.80;;;;;;;17.36;78.11;101725.53;4790087;29;20042;-78
2021/06/26 09:37:27;;;;;;;20.40;11.93;;;;;;;17.41;78.29;101726.75;4773805;30;20485;-79
2021/06/26 09:39:55;;;;;;;26.17;12.30;;;;;;;17.34;78.33;101734.97;4790070;30;20035;-79
2021/06/26 09:42:28;;;;;;;25.77;11.68;;;;;;;17.30;78.61;101733.75;4790694;29;20039;-80
2021/06/26 09:44:55;;;;;;;20.73;12.05;;;;;;;17.20;78.57;101733.41;4805463;29;20046;-78
2021/06/26 09:47:38;;;;;;;21.88;11.30;;;;;;;17.12;78.71;101740.78;4790221;29;20051;-78
2021/06/26 09:50:10;;;;;;;19.42;10.20;;;;;;;17.18;78.44;101730.91;4789922;30;20590;-78
2021/06/26 09:52:55;;;;;;;21.35;10.60;;;;;;;17.36;78.46;101730.97;4789122;29;20100;-78
2021/06/26 09:55:20;;;;;;;17.98;11.15;;;;;;;17.38;77.71;101728.88;4789759;29;20036;-79
2021/06/26 09:57:47;;;;;;;18.27;10.20;;;;;;;17.45;77.98;101725.25;4788700;29;20095;-79
2021/06/26 10:00:15;;;;;;;18.33;10.35;;;;;;;17.64;77.23;101726.13;4788701;30;20031;-79
2021/06/26 10:02:42;;;;;;;16.23;9.65;;;;;;;18.20;75.78;101727.88;4790563;29;20040;-78
2021/06/26 10:05:08;;;;;;;14.60;9.55;;;;;;;18.58;74.09;101727.63;4789611;29;20062;-79
2021/06/26 10:07:35;;;;;;;16.30;9.40;;;;;;;18.90;72.89;101730.16;4787514;30;20035;-79
2021/06/26 10:10:01;;;;;;;15.23;8.68;;;;;;;18.95;71.58;101725.69;4804016;29;20063;-78
2021/06/26 10:12:27;;;;;;;14.77;9.25;;;;;;;18.83;72.10;101727.53;4788228;29;20042;-79
2021/06/26 10:14:56;;;;;;;18.00;11.18;;;;;;;18.72;72.88;101725.59;4788335;30;20078;-78
2021/06/26 10:17:22;;;;;;;13.90;9.15;;;;;;;18.31;73.57;101708.91;4789086;29;20050;-78
2021/06/26 10:19:49;;;;;;;21.70;9.68;;;;;;;18.32;73.11;101723.34;4788261;30;20032;-79
2021/06/26 10:22:14;;;;;;;14.85;8.80;;;;;;;18.29;72.90;101716.47;4788555;30;20043;-78
2021/06/26 10:24:42;;;;;;;16.08;9.65;;;;;;;18.17;73.48;101704.66;4801744;29;20348;-79
2021/06/26 10:27:18;;;;;;;16.55;10.70;;;;;;;17.96;74.97;101726.91;4789208;30;20046;-79
2021/06/26 10:29:44;;;;;;;17.75;9.32;;;;;;;17.91;75.76;101724.00;4787524;30;20122;-79
2021/06/26 10:32:15;;;;;;;16.83;8.93;;;;;;;17.93;74.76;101719.19;4785764;30;20135;-78
2021/06/26 10:34:41;;;;;;;14.95;8.80;;;;;;;17.93;74.65;101722.72;4789334;30;20093;-79
2021/06/26 10:37:17;;;;;;;13.20;8.93;;;;;;;17.99;74.45;101727.28;4787608;30;20481;-79
2021/06/26 10:39:42;;;;;;;13.27;9.07;;;;;;;18.15;74.20;101725.84;4803826;29;20039;-79
2021/06/26 10:42:10;;;;;;;15.82;9.57;;;;;;;18.33;73.74;101718.72;4789359;29;20339;-79
2021/06/26 10:44:52;;;;;;;17.88;9.85;;;;;;;18.29;73.62;101729.25;4790689;29;20070;-78
2021/06/26 10:47:20;;;;;;;15.77;9.48;;;;;;;18.31;73.89;101724.44;4786672;29;20031;-78
2021/06/26 10:49:46;;;;;;;16.35;9.25;;;;;;;18.26;74.00;101711.47;4788300;30;20451;-78
2021/06/26 10:52:17;;;;;;;13.70;8.60;;;;;;;18.34;73.92;101723.09;4786915;29;20049;-78
2021/06/26 10:54:55;;;;;;;14.45;9.02;;;;;;;17.97;74.95;101698.59;4787914;30;20110;-78
2021/06/26 10:57:21;;;;;;;17.05;10.27;;;;;;;17.79;75.87;101722.03;4786441;30;20035;-78
2021/06/26 10:59:54;;;;;;;17.67;10.10;;;;;;;17.67;76.58;101723.78;4788772;29;20039;-78
2021/06/26 11:02:20;;;;;;;13.63;9.40;;;;;;;17.61;76.71;101713.81;4786791;29;20483;-78
2021/06/26 11:04:46;;;;;;;13.90;9.48;;;;;;;17.54;76.96;101727.47;4787696;29;20067;-77
2021/06/26 11:07:12;;;;;;;13.55;9.02;;;;;;;17.59;76.52;101724.09;4771833;30;20339;-78
2021/06/26 11:09:43;;;;;;;13.25;8.25;;;;;;;17.51;76.22;101713.47;4787388;30;20046;-78